createdAt,value
2023-02-27T00:02:14.593Z,2.10
2023-02-27T00:04:41.396Z,2.00
2023-02-27T00:07:11.684Z,1.65
2023-02-27T00:09:40.283Z,1.90
2023-02-27T00:12:08.251Z,1.58
2023-02-27T00:14:35.652Z,2.38
2023-02-27T00:17:08.414Z,1.40
2023-02-27T00:19:35.048Z,1.60
2023-02-27T00:22:01.485Z,1.70
2023-02-27T00:24:28.086Z,1.55
2023-02-27T00:26:54.652Z,1.80
2023-02-27T00:29:21.994Z,2.05
2023-02-27T00:31:51.586Z,1.98
2023-02-27T00:34:18.202Z,1.65
2023-02-27T00:36:44.712Z,1.40
2023-02-27T00:39:11.269Z,1.48
2023-02-27T00:41:40.049Z,1.65
2023-02-27T00:44:06.637Z,1.33
2023-02-27T00:46:33.180Z,1.58
2023-02-27T00:48:59.952Z,1.70
2023-02-27T00:51:29.181Z,1.58
2023-02-27T00:53:56.304Z,1.38
2023-02-27T00:56:23.049Z,1.52
2023-02-27T00:58:50.235Z,1.60
2023-02-27T01:01:21.625Z,1.55
2023-02-27T01:03:48.461Z,1.23
2023-02-27T01:06:20.745Z,1.90
2023-02-27T01:08:47.707Z,1.83
2023-02-27T01:11:14.302Z,1.67
2023-02-27T01:13:40.894Z,1.80
2023-02-27T01:16:08.554Z,1.38
2023-02-27T01:18:35.137Z,1.10
2023-02-27T01:21:01.833Z,1.10
2023-02-27T01:23:28.784Z,1.55
2023-02-27T01:25:55.443Z,1.60
2023-02-27T01:28:22.291Z,1.50
2023-02-27T01:30:49.473Z,1.45
2023-02-27T01:33:16.261Z,1.95
2023-02-27T01:35:42.757Z,1.50
2023-02-27T01:38:09.263Z,1.33
2023-02-27T01:40:39.902Z,1.70
2023-02-27T01:43:07.735Z,1.73
2023-02-27T01:45:35.509Z,1.58
2023-02-27T01:48:19.888Z,1.90
2023-02-27T01:51:02.721Z,1.83
2023-02-27T01:53:30.832Z,1.90
2023-02-27T01:55:59.333Z,1.80
2023-02-27T01:58:27.065Z,1.70
2023-02-27T02:00:54.626Z,1.67
2023-02-27T02:03:38.129Z,1.55
2023-02-27T02:06:07.098Z,1.73
2023-02-27T02:08:38.248Z,1.60
2023-02-27T02:11:07.704Z,1.60
2023-02-27T02:13:34.516Z,2.20
2023-02-27T02:16:07.310Z,1.67
2023-02-27T02:18:45.645Z,1.45
2023-02-27T02:21:25.203Z,1.90
2023-02-27T02:24:12.176Z,1.83
2023-02-27T02:26:45.270Z,2.00
2023-02-27T02:29:15.220Z,1.33
2023-02-27T02:32:01.076Z,1.60
2023-02-27T02:34:49.757Z,1.70
2023-02-27T02:37:35.846Z,2.10
2023-02-27T02:40:02.384Z,1.92
2023-02-27T02:42:43.584Z,2.13
2023-02-27T02:45:10.486Z,1.95
2023-02-27T02:47:45.181Z,1.80
2023-02-27T02:50:13.967Z,1.88
2023-02-27T02:52:40.447Z,1.75
2023-02-27T02:55:08.796Z,2.00
2023-02-27T02:57:35.399Z,2.00
2023-02-27T03:00:08.785Z,2.00
2023-02-27T03:02:45.358Z,1.95
2023-02-27T03:05:32.976Z,2.35
2023-02-27T03:08:10.999Z,1.65
2023-02-27T03:10:44.634Z,1.77
2023-02-27T03:13:14.064Z,1.65
2023-02-27T03:15:44.878Z,1.40
2023-02-27T03:18:20.820Z,2.35
2023-02-27T03:20:51.517Z,2.20
2023-02-27T03:23:21.874Z,2.50
2023-02-27T03:25:48.927Z,2.13
2023-02-27T03:28:19.222Z,1.90
2023-02-27T03:30:46.015Z,2.17
2023-02-27T03:33:15.638Z,1.90
2023-02-27T03:36:03.945Z,1.70
2023-02-27T03:38:36.463Z,1.73
2023-02-27T03:41:03.240Z,1.73
2023-02-27T03:43:55.290Z,1.70
2023-02-27T03:46:24.783Z,2.17
2023-02-27T03:48:51.426Z,1.88
2023-02-27T03:51:19.658Z,2.00
2023-02-27T03:53:46.498Z,2.00
2023-02-27T03:56:14.476Z,1.65
2023-02-27T03:58:41.452Z,1.92
2023-02-27T04:01:08.128Z,1.73
2023-02-27T04:03:37.872Z,2.10
2023-02-27T04:06:25.035Z,2.00
2023-02-27T04:08:58.744Z,1.95
2023-02-27T04:11:31.465Z,2.20
2023-02-27T04:14:10.238Z,1.98
2023-02-27T04:16:44.976Z,2.20
2023-02-27T04:19:30.126Z,1.67
2023-02-27T04:22:16.964Z,2.25
2023-02-27T04:24:57.784Z,2.03
2023-02-27T04:27:31.680Z,1.90
2023-02-27T04:30:08.587Z,2.20
2023-02-27T04:32:38.453Z,2.10
2023-02-27T04:35:08.358Z,2.30
2023-02-27T04:37:37.401Z,2.00
2023-02-27T04:40:07.689Z,1.88
2023-02-27T04:42:36.797Z,2.05
2023-02-27T04:45:05.972Z,2.10
2023-02-27T04:47:35.463Z,2.47
2023-02-27T04:50:07.546Z,2.38
2023-02-27T04:52:59.885Z,1.88
2023-02-27T04:55:28.131Z,2.42
2023-02-27T04:58:07.771Z,2.15
2023-02-27T05:00:36.042Z,2.28
2023-02-27T05:03:18.504Z,2.15
2023-02-27T05:05:46.265Z,1.90
2023-02-27T05:08:18.185Z,2.40
2023-02-27T05:10:53.924Z,2.50
2023-02-27T05:13:20.448Z,2.17
2023-02-27T05:15:53.729Z,2.63
2023-02-27T05:18:21.959Z,2.35
2023-02-27T05:20:57.347Z,2.05
2023-02-27T05:23:34.529Z,2.67
2023-02-27T05:26:01.044Z,2.50
2023-02-27T05:28:30.311Z,1.90
2023-02-27T05:30:59.259Z,2.40
2023-02-27T05:33:27.839Z,2.38
2023-02-27T05:36:03.348Z,6.13
2023-02-27T05:38:34.098Z,18.02
2023-02-27T05:41:09.250Z,8.93
2023-02-27T05:43:56.705Z,3.85
2023-02-27T05:46:25.941Z,2.50
2023-02-27T05:48:55.436Z,2.58
2023-02-27T05:51:23.969Z,2.35
2023-02-27T05:53:54.381Z,2.40
2023-02-27T05:56:22.511Z,2.85
2023-02-27T05:58:55.801Z,2.70
2023-02-27T06:01:22.376Z,2.80
2023-02-27T06:03:48.860Z,3.05
2023-02-27T06:06:16.951Z,3.05
2023-02-27T06:08:43.865Z,3.45
2023-02-27T06:11:10.474Z,3.50
2023-02-27T06:13:37.000Z,3.22
2023-02-27T06:16:03.804Z,3.60
2023-02-27T06:18:30.332Z,3.28
2023-02-27T06:20:57.512Z,3.50
2023-02-27T06:23:24.167Z,3.35
2023-02-27T06:25:50.742Z,3.78
2023-02-27T06:28:17.211Z,3.85
2023-02-27T06:30:46.214Z,4.10
2023-02-27T06:33:12.941Z,4.20
2023-02-27T06:35:39.670Z,4.22
2023-02-27T06:38:06.260Z,3.92
2023-02-27T06:40:32.668Z,4.57
2023-02-27T06:42:59.202Z,4.00
2023-02-27T06:45:25.724Z,3.97
2023-02-27T06:47:52.243Z,4.40
2023-02-27T06:50:19.068Z,4.50
2023-02-27T06:52:45.518Z,4.75
2023-02-27T06:55:12.168Z,4.70
2023-02-27T06:57:38.640Z,4.80
2023-02-27T07:00:06.993Z,4.93
2023-02-27T07:02:34.602Z,5.28
2023-02-27T07:05:05.253Z,4.57
2023-02-27T07:07:37.977Z,4.10
2023-02-27T07:10:05.731Z,3.08
2023-02-27T07:12:32.177Z,4.05
2023-02-27T07:14:59.190Z,3.65
2023-02-27T07:17:25.724Z,4.10
2023-02-27T07:19:52.173Z,3.65
2023-02-27T07:22:18.940Z,4.20
2023-02-27T07:24:45.356Z,4.13
2023-02-27T07:27:12.018Z,4.57
2023-02-27T07:29:38.615Z,4.00
2023-02-27T07:32:05.370Z,4.20
2023-02-27T07:34:31.830Z,6.15
2023-02-27T07:36:58.372Z,7.10
2023-02-27T07:39:24.810Z,5.80
2023-02-27T07:41:51.368Z,4.88
2023-02-27T07:44:18.103Z,3.80
2023-02-27T07:46:44.979Z,3.30
2023-02-27T07:49:11.618Z,2.92
2023-02-27T07:51:38.152Z,2.38
2023-02-27T07:54:04.624Z,2.55
2023-02-27T07:56:31.303Z,2.05
2023-02-27T07:58:57.806Z,2.40
2023-02-27T08:01:24.500Z,2.65
2023-02-27T08:03:50.941Z,2.35
2023-02-27T08:06:20.250Z,2.58
2023-02-27T08:08:46.914Z,2.25
2023-02-27T08:11:13.554Z,2.42
2023-02-27T08:13:59.488Z,2.40
2023-02-27T08:16:26.963Z,2.20
2023-02-27T08:18:53.762Z,2.75
2023-02-27T08:21:20.293Z,2.47
2023-02-27T08:23:46.945Z,2.67
2023-02-27T08:26:13.948Z,2.58
2023-02-27T08:28:41.327Z,2.30
2023-02-27T08:31:08.095Z,2.42
2023-02-27T08:33:34.602Z,2.42
2023-02-27T08:36:03.261Z,2.40
2023-02-27T08:38:29.828Z,1.90
2023-02-27T08:40:56.826Z,2.10
2023-02-27T08:43:23.500Z,2.30
2023-02-27T08:45:51.613Z,1.95
2023-02-27T08:48:18.790Z,2.33
2023-02-27T08:50:46.428Z,2.08
2023-02-27T08:53:13.426Z,1.90
2023-02-27T08:55:42.685Z,2.30
2023-02-27T08:58:09.624Z,1.80
2023-02-27T09:00:36.194Z,2.80
2023-02-27T09:03:07.128Z,2.30
2023-02-27T09:05:35.387Z,2.20
2023-02-27T09:08:02.326Z,2.08
2023-02-27T09:10:28.909Z,2.90
2023-02-27T09:12:55.317Z,2.83
2023-02-27T09:15:24.924Z,2.30
2023-02-27T09:17:51.481Z,2.05
2023-02-27T09:20:19.384Z,1.73
2023-02-27T09:22:46.024Z,1.98
2023-02-27T09:25:12.625Z,2.25
2023-02-27T09:27:39.130Z,2.00
2023-02-27T09:30:06.047Z,2.05
2023-02-27T09:32:32.844Z,1.95
2023-02-27T09:35:00.436Z,1.65
2023-02-27T09:37:26.970Z,2.08
2023-02-27T09:39:53.508Z,2.00
2023-02-27T09:42:31.948Z,1.92
2023-02-27T09:45:02.630Z,1.65
2023-02-27T09:47:35.455Z,2.13
2023-02-27T09:50:02.022Z,2.03
2023-02-27T09:52:32.499Z,2.05
2023-02-27T09:54:59.177Z,2.03
2023-02-27T09:57:28.595Z,2.15
2023-02-27T09:59:59.760Z,1.90
2023-02-27T10:02:44.935Z,1.58
2023-02-27T10:05:17.674Z,2.13
2023-02-27T10:07:46.862Z,2.22
2023-02-27T10:10:13.638Z,1.90
2023-02-27T10:12:45.130Z,1.83
2023-02-27T10:15:50.168Z,1.58
2023-02-27T10:18:26.801Z,2.10
2023-02-27T10:20:56.410Z,1.52
2023-02-27T10:23:35.906Z,2.10
2023-02-27T10:26:02.981Z,1.92
2023-02-27T10:28:30.572Z,2.67
2023-02-27T10:30:59.430Z,2.15
2023-02-27T10:33:31.324Z,2.28
2023-02-27T10:35:58.046Z,2.63
2023-02-27T10:38:37.301Z,2.97
2023-02-27T10:41:04.196Z,3.20
2023-02-27T10:43:30.956Z,3.20
2023-02-27T10:46:01.288Z,3.17
2023-02-27T10:48:28.095Z,2.80
2023-02-27T10:51:14.570Z,2.55
2023-02-27T10:53:41.282Z,2.75
2023-02-27T10:56:10.639Z,2.70
2023-02-27T10:58:37.794Z,3.00
2023-02-27T11:01:06.268Z,2.90
2023-02-27T11:03:34.051Z,2.72
2023-02-27T11:06:19.212Z,3.10
2023-02-27T11:09:05.867Z,2.80
2023-02-27T11:11:32.658Z,2.97
2023-02-27T11:14:14.790Z,2.70
2023-02-27T11:16:49.166Z,3.25
2023-02-27T11:19:25.956Z,3.03
2023-02-27T11:22:14.355Z,2.78
2023-02-27T11:24:41.139Z,2.50
2023-02-27T11:27:27.083Z,2.97
2023-02-27T11:30:00.990Z,3.00
2023-02-27T11:32:35.811Z,2.80
2023-02-27T11:35:04.548Z,2.33
2023-02-27T11:37:35.357Z,2.40
2023-02-27T11:40:09.913Z,2.72
2023-02-27T11:42:39.402Z,2.80
2023-02-27T11:45:09.054Z,3.13
2023-02-27T11:50:30.522Z,2.67
2023-02-27T11:53:12.559Z,3.50
2023-02-27T11:55:39.808Z,2.75
2023-02-27T11:58:20.614Z,3.10
2023-02-27T12:00:51.006Z,3.40
2023-02-27T12:03:26.338Z,2.90
2023-02-27T12:06:05.415Z,2.97
2023-02-27T12:08:42.187Z,2.70
2023-02-27T12:11:30.163Z,3.05
2023-02-27T12:13:59.438Z,2.85
2023-02-27T12:16:52.408Z,2.45
2023-02-27T12:19:26.377Z,3.00
2023-02-27T12:22:02.336Z,2.80
2023-02-27T12:24:32.064Z,2.50
2023-02-27T12:27:07.970Z,2.78
2023-02-27T12:29:39.031Z,2.47
2023-02-27T12:32:18.759Z,2.50
2023-02-27T12:34:47.972Z,2.13
2023-02-27T12:37:23.441Z,2.53
2023-02-27T12:39:51.456Z,2.17
2023-02-27T12:42:21.206Z,2.20
2023-02-27T12:45:07.223Z,2.20
2023-02-27T12:47:39.723Z,2.10
2023-02-27T12:50:16.988Z,1.80
2023-02-27T12:52:43.764Z,2.30
2023-02-27T12:55:13.995Z,1.85
2023-02-27T12:57:43.560Z,1.77
2023-02-27T13:00:20.477Z,1.63
2023-02-27T13:02:59.211Z,1.77
2023-02-27T13:05:52.212Z,1.45
2023-02-27T13:08:38.273Z,1.52
2023-02-27T13:13:40.001Z,1.50
2023-02-27T13:16:17.187Z,1.50
2023-02-27T13:18:47.656Z,1.60
2023-02-27T13:21:32.916Z,1.60
2023-02-27T13:24:04.618Z,1.70
2023-02-27T13:26:43.962Z,1.50
2023-02-27T13:29:13.935Z,1.35
2023-02-27T13:32:01.498Z,1.40
2023-02-27T13:34:36.421Z,1.33
2023-02-27T13:37:08.725Z,1.42
2023-02-27T13:39:45.653Z,2.05
2023-02-27T13:42:27.447Z,1.80
2023-02-27T13:44:54.772Z,1.55
2023-02-27T13:47:30.496Z,1.45
2023-02-27T13:49:57.549Z,1.90
2023-02-27T13:52:31.229Z,1.35
2023-02-27T13:55:06.188Z,1.40
2023-02-27T13:57:38.227Z,1.45
2023-02-27T14:00:25.193Z,1.40
2023-02-27T14:03:17.997Z,1.25
2023-02-27T14:05:46.052Z,1.50
2023-02-27T14:08:19.642Z,1.58
2023-02-27T14:11:05.082Z,1.40
2023-02-27T14:13:54.838Z,1.27
2023-02-27T14:16:41.856Z,1.70
2023-02-27T14:19:17.884Z,1.90
2023-02-27T14:22:01.417Z,1.98
2023-02-27T14:24:38.207Z,1.77
2023-02-27T14:27:06.931Z,2.20
2023-02-27T14:29:34.868Z,1.95
2023-02-27T14:32:07.156Z,2.03
2023-02-27T14:34:35.804Z,2.05
2023-02-27T14:37:06.257Z,1.83
2023-02-27T14:39:37.175Z,1.80
2023-02-27T14:42:22.495Z,1.70
2023-02-27T14:44:50.070Z,1.50
2023-02-27T14:47:24.015Z,1.30
2023-02-27T14:49:50.608Z,1.17
2023-02-27T14:52:22.200Z,1.52
2023-02-27T14:54:49.611Z,1.80
2023-02-27T14:57:27.056Z,5.63
2023-02-27T14:59:54.654Z,2.42
2023-02-27T15:02:21.676Z,1.70
2023-02-27T15:04:49.892Z,1.73
2023-02-27T15:07:24.473Z,1.90
2023-02-27T15:09:53.383Z,1.87
2023-02-27T15:12:20.489Z,1.92
2023-02-27T15:14:49.678Z,2.17
2023-02-27T15:17:16.178Z,2.67
2023-02-27T15:19:53.085Z,2.53
2023-02-27T15:22:36.147Z,2.35
2023-02-27T15:25:07.618Z,2.65
2023-02-27T15:27:37.093Z,1.98
2023-02-27T15:30:04.661Z,1.80
2023-02-27T15:32:31.421Z,1.67
2023-02-27T15:34:58.869Z,2.08
2023-02-27T15:37:27.259Z,1.70
2023-02-27T15:39:54.707Z,2.13
2023-02-27T15:42:23.927Z,1.80
2023-02-27T15:44:50.703Z,2.15
2023-02-27T15:47:21.688Z,1.90
2023-02-27T15:49:49.895Z,1.95
2023-02-27T15:52:26.073Z,2.03
2023-02-27T15:55:03.414Z,2.20
2023-02-27T15:57:30.724Z,2.22
2023-02-27T15:59:57.658Z,2.42
2023-02-27T16:02:27.941Z,2.10
2023-02-27T16:04:54.719Z,2.47
2023-02-27T16:07:23.061Z,2.10
2023-02-27T16:09:50.899Z,2.83
2023-02-27T16:12:23.430Z,2.63
2023-02-27T16:14:52.770Z,2.58
2023-02-27T16:17:27.129Z,2.42
2023-02-27T16:19:54.865Z,2.40
2023-02-27T16:22:22.056Z,2.35
2023-02-27T16:24:49.521Z,2.47
2023-02-27T16:27:17.339Z,2.30
2023-02-27T16:29:45.475Z,2.63
2023-02-27T16:32:21.239Z,2.90
2023-02-27T16:34:47.836Z,2.83
2023-02-27T16:37:37.982Z,2.17
2023-02-27T16:40:11.008Z,2.42
2023-02-27T16:42:38.326Z,2.38
2023-02-27T16:45:09.013Z,2.58
2023-02-27T16:47:35.736Z,2.35
2023-02-27T16:50:02.264Z,2.75
2023-02-27T16:52:29.377Z,2.70
2023-02-27T16:54:55.867Z,2.00
2023-02-27T16:57:27.672Z,2.45
2023-02-27T16:59:54.220Z,2.50
2023-02-27T17:02:20.786Z,2.35
2023-02-27T17:04:48.364Z,2.30
2023-02-27T17:07:16.267Z,2.58
2023-02-27T17:09:46.070Z,2.90
2023-02-27T17:12:12.772Z,2.15
2023-02-27T17:14:39.265Z,2.88
2023-02-27T17:17:06.681Z,2.67
2023-02-27T17:19:33.500Z,2.90
2023-02-27T17:21:59.959Z,2.85
2023-02-27T17:24:26.698Z,2.92
2023-02-27T17:26:53.356Z,2.72
2023-02-27T17:29:20.354Z,2.53
2023-02-27T17:31:47.062Z,2.72
2023-02-27T17:34:14.857Z,2.58
2023-02-27T17:36:41.312Z,2.47
2023-02-27T17:39:09.040Z,2.90
2023-02-27T17:41:35.528Z,2.70
2023-02-27T17:44:02.027Z,2.80
2023-02-27T17:46:29.632Z,2.78
2023-02-27T17:48:59.988Z,3.00
2023-02-27T17:51:28.172Z,2.72
2023-02-27T17:53:54.694Z,2.83
2023-02-27T17:56:21.277Z,2.95
2023-02-27T17:58:47.900Z,3.20
2023-02-27T18:01:16.962Z,3.20
2023-02-27T18:03:46.691Z,3.30
2023-02-27T18:06:13.343Z,3.13
2023-02-27T18:08:40.016Z,3.15
2023-02-27T18:11:14.409Z,3.13
2023-02-27T18:13:40.971Z,2.67
2023-02-27T18:16:08.414Z,3.55
2023-02-27T18:18:36.437Z,3.22
2023-02-27T18:21:22.782Z,2.88
2023-02-27T18:23:50.725Z,2.63
2023-02-27T18:26:29.357Z,2.63
2023-02-27T18:29:00.187Z,2.50
2023-02-27T18:31:31.528Z,2.75
2023-02-27T18:33:58.852Z,2.75
2023-02-27T18:36:25.429Z,2.95
2023-02-27T18:38:52.055Z,3.20
2023-02-27T18:41:18.648Z,2.75
2023-02-27T18:43:45.356Z,2.63
2023-02-27T18:46:12.765Z,2.75
2023-02-27T18:48:40.370Z,2.97
2023-02-27T18:51:12.231Z,2.65
2023-02-27T18:53:40.918Z,2.63
2023-02-27T18:56:08.643Z,3.10
2023-02-27T18:58:35.539Z,2.85
2023-02-27T19:01:04.098Z,2.80
2023-02-27T19:03:31.470Z,2.72
2023-02-27T19:05:58.268Z,3.05
2023-02-27T19:08:28.928Z,2.80
2023-02-27T19:10:56.492Z,2.90
2023-02-27T19:13:23.270Z,2.53
2023-02-27T19:15:50.541Z,3.05
2023-02-27T19:18:17.357Z,2.65
2023-02-27T19:20:43.948Z,3.10
2023-02-27T19:23:10.397Z,2.70
2023-02-27T19:25:37.015Z,2.55
2023-02-27T19:28:05.123Z,2.47
2023-02-27T19:30:31.639Z,2.80
2023-02-27T19:33:00.485Z,2.70
2023-02-27T19:35:27.037Z,3.00
2023-02-27T19:37:58.008Z,2.80
2023-02-27T19:40:26.321Z,2.72
2023-02-27T19:42:52.965Z,3.33
2023-02-27T19:45:20.396Z,3.45
2023-02-27T19:47:47.004Z,4.20
2023-02-27T19:50:13.813Z,3.22
2023-02-27T19:52:40.340Z,3.60
2023-02-27T19:55:07.012Z,4.30
2023-02-27T19:57:34.155Z,4.35
2023-02-27T20:00:00.719Z,4.18
2023-02-27T20:02:27.882Z,5.25
2023-02-27T20:04:54.645Z,4.43
2023-02-27T20:07:21.229Z,4.15
2023-02-27T20:09:47.865Z,4.32
2023-02-27T20:12:14.467Z,3.78
2023-02-27T20:14:41.185Z,3.70
2023-02-27T20:17:08.201Z,3.22
2023-02-27T20:19:36.427Z,3.55
2023-02-27T20:22:03.489Z,3.42
2023-02-27T20:24:29.989Z,3.47
2023-02-27T20:26:59.104Z,3.55
2023-02-27T20:29:26.557Z,3.28
2023-02-27T20:31:53.748Z,3.60
2023-02-27T20:34:21.889Z,3.40
2023-02-27T20:36:50.489Z,3.50
2023-02-27T20:39:17.886Z,3.17
2023-02-27T20:41:44.991Z,3.58
2023-02-27T20:44:12.676Z,3.30
2023-02-27T20:46:40.296Z,3.97
2023-02-27T20:49:07.133Z,3.47
2023-02-27T20:51:36.012Z,4.20
2023-02-27T20:54:03.878Z,3.63
2023-02-27T20:56:32.040Z,3.97
2023-02-27T20:59:01.333Z,3.67
2023-02-27T21:01:28.703Z,3.83
2023-02-27T21:03:57.181Z,4.05
2023-02-27T21:06:24.182Z,4.35
2023-02-27T21:08:52.752Z,4.40
2023-02-27T21:11:22.464Z,4.38
2023-02-27T21:13:50.017Z,4.03
2023-02-27T21:16:17.958Z,4.63
2023-02-27T21:18:45.119Z,4.18
2023-02-27T21:21:13.279Z,4.20
2023-02-27T21:23:42.604Z,4.03
2023-02-27T21:26:22.871Z,4.50
2023-02-27T21:28:56.901Z,4.75
2023-02-27T21:31:25.018Z,4.80
2023-02-27T21:33:52.240Z,4.60
2023-02-27T21:36:23.728Z,3.85
2023-02-27T21:38:51.863Z,4.00
2023-02-27T21:41:18.294Z,4.35
2023-02-27T21:43:44.764Z,3.88
2023-02-27T21:46:12.224Z,4.35
2023-02-27T21:48:39.274Z,4.60
2023-02-27T21:51:06.589Z,4.93
2023-02-27T21:53:33.284Z,4.28
2023-02-27T21:56:03.976Z,4.05
2023-02-27T21:58:30.526Z,4.05
2023-02-27T22:00:57.018Z,3.75
2023-02-27T22:03:23.560Z,3.75
2023-02-27T22:05:50.048Z,4.35
2023-02-27T22:08:16.601Z,4.45
2023-02-27T22:10:45.824Z,4.35
2023-02-27T22:13:13.839Z,5.78
2023-02-27T22:15:40.481Z,5.30
2023-02-27T22:18:07.214Z,4.88
2023-02-27T22:20:33.863Z,4.53
2023-02-27T22:23:02.223Z,4.40
2023-02-27T22:25:28.734Z,4.97
2023-02-27T22:27:55.226Z,4.70
2023-02-27T22:30:21.666Z,6.90
2023-02-27T22:32:48.189Z,4.85
2023-02-27T22:35:15.434Z,4.38
2023-02-27T22:37:42.003Z,4.32
2023-02-27T22:40:08.797Z,4.40
2023-02-27T22:42:35.442Z,4.07
2023-02-27T22:45:02.001Z,4.40
2023-02-27T22:47:28.868Z,4.30
2023-02-27T22:49:55.290Z,4.53
2023-02-27T22:52:21.765Z,3.90
2023-02-27T22:54:50.036Z,4.30
2023-02-27T22:57:16.459Z,4.35
2023-02-27T22:59:42.994Z,4.60
2023-02-27T23:02:10.245Z,4.18
2023-02-27T23:04:36.870Z,4.65
2023-02-27T23:07:03.403Z,9.27
2023-02-27T23:09:29.985Z,8.88
2023-02-27T23:11:56.454Z,7.18
2023-02-27T23:14:23.053Z,7.78
2023-02-27T23:16:49.712Z,6.90
2023-02-27T23:19:19.886Z,6.22
2023-02-27T23:21:46.549Z,4.75
2023-02-27T23:24:17.157Z,4.70
2023-02-27T23:26:45.659Z,4.80
2023-02-27T23:29:12.683Z,4.65
2023-02-27T23:31:40.049Z,4.82
2023-02-27T23:34:07.002Z,4.30
2023-02-27T23:36:34.478Z,5.22
2023-02-27T23:39:03.014Z,5.50
2023-02-27T23:41:30.333Z,4.72
2023-02-27T23:44:15.514Z,4.85
2023-02-27T23:46:42.003Z,4.40
2023-02-27T23:49:08.897Z,5.00
2023-02-27T23:51:35.792Z,4.70
2023-02-27T23:54:03.824Z,4.63
2023-02-27T23:56:30.843Z,4.85
2023-02-27T23:59:01.935Z,5.88
